Time;durP1;ratioP1;P1;durP2;ratioP2;P2;SDS_P1;SDS_P2;PMS_P1;PMS_P2;Temp;Humidity;BMP_temperature;BMP_pressure;BME280_temperature;BME280_humidity;BME280_pressure;Samples;Min_cycle;Max_cycle;Signal;HPM_P1;HPM_P2
2023/11/13 00:00:05;;;;;;;11.07;6.10;;;;;;;;;;699491;28;4371;-64
2023/11/13 00:00:28;;;;;;;10.13;6.03;;;;;;;;;;701642;28;1115;-65
2023/11/13 00:00:49;;;;;;;9.77;5.80;;;;;;;;;;704083;28;1257;-65
2023/11/13 00:01:09;;;;;;;10.10;5.60;;;;;;;;;;699275;28;2446;-64
2023/11/13 00:01:30;;;;;;;9.32;5.80;;;;;;;;;;701718;28;1076;-65
2023/11/13 00:01:50;;;;;;;9.87;6.00;;;;;;;;;;702682;28;1253;-65
2023/11/13 00:02:13;;;;;;;8.57;5.72;;;;;;;;;;701837;28;1607;-64
2023/11/13 00:02:33;;;;;;;9.57;5.80;;;;;;;;;;701864;28;1127;-65
2023/11/13 00:02:53;;;;;;;9.55;6.00;;;;;;;;;;701814;28;1205;-64
2023/11/13 00:03:13;;;;;;;9.83;5.50;;;;;;;;;;701304;28;4471;-68
2023/11/13 00:03:34;;;;;;;9.73;5.40;;;;;;;;;;701024;28;1510;-64
2023/11/13 00:03:54;;;;;;;11.30;5.90;;;;;;;;;;700375;28;1357;-65
2023/11/13 00:04:14;;;;;;;11.40;5.93;;;;;;;;;;698536;28;1988;-64
2023/11/13 00:04:35;;;;;;;9.53;5.70;;;;;;;;;;701259;28;1174;-65
2023/11/13 00:04:56;;;;;;;9.90;5.90;;;;;;;;;;701892;28;1254;-64
2023/11/13 00:05:17;;;;;;;9.00;5.50;;;;;;;;;;702136;28;2528;-65
2023/11/13 00:05:38;;;;;;;9.27;5.93;;;;;;;;;;705840;28;1111;-65
2023/11/13 00:05:58;;;;;;;9.48;6.20;;;;;;;;;;701839;28;1236;-64
2023/11/13 00:06:18;;;;;;;10.00;6.10;;;;;;;;;;698414;28;4248;-64
2023/11/13 00:06:39;;;;;;;11.00;5.90;;;;;;;;;;701037;28;1209;-65
2023/11/13 00:07:00;;;;;;;9.13;5.82;;;;;;;;;;700074;28;2028;-66
2023/11/13 00:07:21;;;;;;;9.52;5.85;;;;;;;;;;701270;28;1202;-65
2023/11/13 00:07:42;;;;;;;10.43;5.88;;;;;;;;;;700492;28;1130;-64
2023/11/13 00:08:06;;;;;;;9.82;6.07;;;;;;;;;;700457;28;1726;-65
2023/11/13 00:08:28;;;;;;;9.75;5.82;;;;;;;;;;702784;28;1336;-66
2023/11/13 00:08:49;;;;;;;8.43;5.63;;;;;;;;;;702546;28;1162;-65
2023/11/13 00:09:10;;;;;;;9.05;5.93;;;;;;;;;;702611;27;6536;-65
2023/11/13 00:09:31;;;;;;;9.70;6.03;;;;;;;;;;706601;27;1279;-65
2023/11/13 00:09:54;;;;;;;9.10;5.68;;;;;;;;;;707279;27;1344;-64
2023/11/13 00:10:16;;;;;;;9.65;6.10;;;;;;;;;;703289;27;2269;-64
2023/11/13 00:10:37;;;;;;;9.35;5.95;;;;;;;;;;706453;27;1168;-64
2023/11/13 00:10:58;;;;;;;9.75;5.80;;;;;;;;;;703811;27;1852;-66
2023/11/13 00:11:20;;;;;;;8.73;5.73;;;;;;;;;;700537;28;1465;-64
2023/11/13 00:11:40;;;;;;;9.02;5.63;;;;;;;;;;698835;28;1337;-64
2023/11/13 00:12:03;;;;;;;9.07;5.80;;;;;;;;;;696816;28;4700;-65
2023/11/13 00:12:23;;;;;;;10.38;5.85;;;;;;;;;;696840;28;1961;-64
2023/11/13 00:12:44;;;;;;;10.95;5.70;;;;;;;;;;695240;28;1203;-66
2023/11/13 00:13:04;;;;;;;9.93;6.13;;;;;;;;;;690315;28;2156;-64
2023/11/13 00:13:24;;;;;;;10.30;5.67;;;;;;;;;;695661;28;1375;-65
2023/11/13 00:13:45;;;;;;;10.38;5.82;;;;;;;;;;697009;28;1075;-64
2023/11/13 00:14:06;;;;;;;9.90;5.73;;;;;;;;;;699045;28;1477;-65
2023/11/13 00:14:26;;;;;;;10.40;5.97;;;;;;;;;;699797;28;1259;-64
2023/11/13 00:14:46;;;;;;;10.63;5.72;;;;;;;;;;703696;28;1368;-65
2023/11/13 00:15:07;;;;;;;9.97;5.43;;;;;;;;;;705008;27;4371;-64
2023/11/13 00:15:27;;;;;;;8.82;5.40;;;;;;;;;;706928;27;1229;-65
2023/11/13 00:15:48;;;;;;;10.67;5.27;;;;;;;;;;705842;27;1418;-64
2023/11/13 00:16:08;;;;;;;10.35;5.47;;;;;;;;;;703706;27;2340;-64
2023/11/13 00:16:28;;;;;;;7.67;5.10;;;;;;;;;;706541;27;1193;-64
2023/11/13 00:16:48;;;;;;;8.37;5.40;;;;;;;;;;707088;27;1225;-65
2023/11/13 00:17:09;;;;;;;9.60;6.03;;;;;;;;;;704216;27;1689;-63
2023/11/13 00:17:29;;;;;;;9.73;5.50;;;;;;;;;;703212;28;1217;-65
2023/11/13 00:17:50;;;;;;;9.67;5.80;;;;;;;;;;702796;28;1162;-64
2023/11/13 00:18:10;;;;;;;8.93;5.10;;;;;;;;;;701888;28;4250;-64
2023/11/13 00:18:31;;;;;;;8.13;5.30;;;;;;;;;;702581;28;1190;-65
2023/11/13 00:18:52;;;;;;;8.38;5.00;;;;;;;;;;701978;28;1202;-64
2023/11/13 00:19:12;;;;;;;8.73;5.07;;;;;;;;;;702630;27;1818;-64
2023/11/13 00:19:33;;;;;;;8.60;5.30;;;;;;;;;;705910;27;1222;-64
2023/11/13 00:19:53;;;;;;;10.00;5.60;;;;;;;;;;705766;27;1161;-65
2023/11/13 00:20:13;;;;;;;10.70;5.60;;;;;;;;;;702086;28;1960;-65
2023/11/13 00:20:34;;;;;;;10.53;5.73;;;;;;;;;;703476;28;1177;-64
2023/11/13 00:20:54;;;;;;;9.40;5.27;;;;;;;;;;703595;28;1156;-65
2023/11/13 00:21:15;;;;;;;9.40;5.47;;;;;;;;;;699972;28;4526;-65
2023/11/13 00:21:36;;;;;;;10.35;5.90;;;;;;;;;;702528;28;1033;-65
2023/11/13 00:21:56;;;;;;;10.53;5.67;;;;;;;;;;704203;28;967;-64
2023/11/13 00:22:16;;;;;;;10.53;5.50;;;;;;;;;;705703;27;1745;-64
2023/11/13 00:22:36;;;;;;;9.73;5.53;;;;;;;;;;705365;28;1177;-64
2023/11/13 00:22:57;;;;;;;8.90;5.40;;;;;;;;;;705175;27;938;-64
2023/11/13 00:23:17;;;;;;;8.83;5.43;;;;;;;;;;704880;27;2197;-65
2023/11/13 00:23:37;;;;;;;9.30;5.60;;;;;;;;;;705689;27;773;-65
2023/11/13 00:23:58;;;;;;;8.43;5.07;;;;;;;;;;705952;27;952;-64
2023/11/13 00:24:18;;;;;;;9.30;5.40;;;;;;;;;;703282;27;4599;-65
2023/11/13 00:24:39;;;;;;;9.77;5.47;;;;;;;;;;706295;27;947;-64
2023/11/13 00:24:59;;;;;;;9.13;5.70;;;;;;;;;;706047;27;912;-64
2023/11/13 00:25:19;;;;;;;10.03;5.40;;;;;;;;;;703961;27;4288;-65
2023/11/13 00:25:39;;;;;;;8.68;5.50;;;;;;;;;;704660;27;849;-65
2023/11/13 00:26:00;;;;;;;8.47;5.23;;;;;;;;;;706492;27;900;-65
2023/11/13 00:26:21;;;;;;;7.78;5.18;;;;;;;;;;704165;27;1781;-65
2023/11/13 00:26:45;;;;;;;10.00;5.70;;;;;;;;;;705820;27;876;-64
2023/11/13 00:27:06;;;;;;;10.93;5.90;;;;;;;;;;704524;27;4574;-65
2023/11/13 00:27:26;;;;;;;9.83;5.40;;;;;;;;;;706388;27;833;-65
2023/11/13 00:27:46;;;;;;;8.67;5.50;;;;;;;;;;703289;28;1277;-64
2023/11/13 00:28:06;;;;;;;8.37;5.37;;;;;;;;;;702342;28;2481;-64
2023/11/13 00:28:27;;;;;;;9.80;5.45;;;;;;;;;;702016;28;881;-65
2023/11/13 00:28:48;;;;;;;8.90;5.27;;;;;;;;;;701407;28;781;-65
2023/11/13 00:29:08;;;;;;;9.10;5.60;;;;;;;;;;698158;28;2293;-65
2023/11/13 00:29:28;;;;;;;9.67;5.93;;;;;;;;;;700235;28;903;-65
2023/11/13 00:29:48;;;;;;;9.90;5.97;;;;;;;;;;702511;28;840;-65
2023/11/13 00:30:10;;;;;;;9.97;5.40;;;;;;;;;;697487;28;4452;-65
2023/11/13 00:30:30;;;;;;;9.15;5.30;;;;;;;;;;698759;28;923;-65
2023/11/13 00:30:50;;;;;;;8.88;5.60;;;;;;;;;;698378;28;948;-64
2023/11/13 00:31:13;;;;;;;10.57;5.40;;;;;;;;;;697200;28;1878;-65
2023/11/13 00:31:33;;;;;;;8.38;5.38;;;;;;;;;;697006;28;1485;-66
2023/11/13 00:31:53;;;;;;;9.77;5.40;;;;;;;;;;698480;28;1348;-64
2023/11/13 00:32:13;;;;;;;10.27;5.50;;;;;;;;;;701865;28;2261;-65
2023/11/13 00:32:34;;;;;;;11.47;5.50;;;;;;;;;;700234;28;1976;-64
2023/11/13 00:32:54;;;;;;;10.70;5.45;;;;;;;;;;698483;28;897;-65
2023/11/13 00:33:16;;;;;;;10.83;5.53;;;;;;;;;;698025;28;4361;-65
2023/11/13 00:33:36;;;;;;;9.13;5.53;;;;;;;;;;702298;28;967;-65
2023/11/13 00:33:56;;;;;;;9.77;5.67;;;;;;;;;;702380;28;900;-65
2023/11/13 00:34:17;;;;;;;8.70;5.35;;;;;;;;;;701648;28;1829;-64
2023/11/13 00:34:37;;;;;;;8.07;5.17;;;;;;;;;;700880;28;947;-65
2023/11/13 00:34:57;;;;;;;9.27;5.53;;;;;;;;;;700300;28;957;-65
2023/11/13 00:35:18;;;;;;;9.05;5.60;;;;;;;;;;699183;28;1668;-65
2023/11/13 00:35:38;;;;;;;9.20;5.20;;;;;;;;;;704242;28;876;-65
2023/11/13 00:35:58;;;;;;;9.97;5.40;;;;;;;;;;701048;28;856;-64
2023/11/13 00:36:18;;;;;;;8.63;5.40;;;;;;;;;;699799;28;4437;-64
2023/11/13 00:36:39;;;;;;;9.40;5.70;;;;;;;;;;701911;28;932;-64
2023/11/13 00:36:59;;;;;;;10.13;5.50;;;;;;;;;;701896;28;1119;-65
2023/11/13 00:37:21;;;;;;;9.10;5.40;;;;;;;;;;698467;28;1517;-65
2023/11/13 00:37:41;;;;;;;8.00;5.35;;;;;;;;;;698259;28;813;-64
2023/11/13 00:38:01;;;;;;;8.60;5.10;;;;;;;;;;702827;28;765;-65
2023/11/13 00:38:22;;;;;;;9.60;5.30;;;;;;;;;;698117;28;2207;-64
2023/11/13 00:38:42;;;;;;;8.93;5.10;;;;;;;;;;696550;28;1197;-64
2023/11/13 00:39:03;;;;;;;8.57;5.60;;;;;;;;;;696667;28;4393;-66
2023/11/13 00:39:24;;;;;;;9.65;5.70;;;;;;;;;;697101;28;1362;-64
2023/11/13 00:39:44;;;;;;;8.82;5.40;;;;;;;;;;694737;28;1223;-64
2023/11/13 00:40:04;;;;;;;7.33;5.27;;;;;;;;;;689525;28;2428;-64
2023/11/13 00:40:25;;;;;;;8.35;5.43;;;;;;;;;;696109;28;926;-65
2023/11/13 00:40:46;;;;;;;8.68;5.30;;;;;;;;;;697905;28;848;-65
2023/11/13 00:41:10;;;;;;;9.07;5.10;;;;;;;;;;695183;28;1868;-65
2023/11/13 00:41:33;;;;;;;10.02;5.28;;;;;;;;;;693986;28;1440;-65
2023/11/13 00:41:54;;;;;;;10.07;5.55;;;;;;;;;;695008;28;1244;-64
2023/11/13 00:42:15;;;;;;;10.07;5.77;;;;;;;;;;695133;28;4235;-65
2023/11/13 00:42:35;;;;;;;8.82;5.60;;;;;;;;;;699721;28;1411;-65
2023/11/13 00:42:56;;;;;;;9.77;5.60;;;;;;;;;;700219;28;878;-64
2023/11/13 00:43:16;;;;;;;9.13;5.27;;;;;;;;;;697359;28;2434;-65
2023/11/13 00:43:38;;;;;;;9.43;5.30;;;;;;;;;;694207;28;1648;-64
2023/11/13 00:44:00;;;;;;;10.63;5.27;;;;;;;;;;696890;28;5595;-65
2023/11/13 00:44:20;;;;;;;11.32;5.38;;;;;;;;;;696941;28;1015;-65
2023/11/13 00:44:40;;;;;;;9.53;5.57;;;;;;;;;;697852;28;1321;-65
2023/11/13 00:45:00;;;;;;;9.30;5.00;;;;;;;;;;697401;28;4518;-64
2023/11/13 00:45:21;;;;;;;8.05;5.20;;;;;;;;;;696551;28;1588;-64
2023/11/13 00:45:41;;;;;;;7.90;5.40;;;;;;;;;;697403;28;1140;-65
2023/11/13 00:46:02;;;;;;;8.47;5.47;;;;;;;;;;697806;28;1054;-64
2023/11/13 00:46:22;;;;;;;8.00;5.10;;;;;;;;;;693451;28;1665;-65
2023/11/13 00:46:44;;;;;;;8.05;4.97;;;;;;;;;;698120;28;2964;-64
2023/11/13 00:47:04;;;;;;;9.07;5.35;;;;;;;;;;697527;28;1713;-65
2023/11/13 00:47:24;;;;;;;10.27;5.80;;;;;;;;;;698397;28;1150;-65
2023/11/13 00:47:44;;;;;;;8.88;5.70;;;;;;;;;;699702;28;931;-65
2023/11/13 00:48:06;;;;;;;8.93;5.40;;;;;;;;;;698436;28;4367;-64
2023/11/13 00:48:27;;;;;;;9.70;5.38;;;;;;;;;;700277;28;907;-66
2023/11/13 00:48:47;;;;;;;8.88;5.20;;;;;;;;;;700429;28;1399;-64
2023/11/13 00:49:08;;;;;;;8.23;5.20;;;;;;;;;;699012;28;1577;-64
2023/11/13 00:49:28;;;;;;;9.07;5.47;;;;;;;;;;702163;28;781;-66
2023/11/13 00:49:49;;;;;;;8.45;5.28;;;;;;;;;;701729;28;1133;-65
2023/11/13 00:50:11;;;;;;;7.87;5.00;;;;;;;;;;698511;28;2695;-66
2023/11/13 00:50:31;;;;;;;8.50;5.35;;;;;;;;;;699734;28;959;-65
2023/11/13 00:50:52;;;;;;;8.47;4.83;;;;;;;;;;699221;28;1143;-65
2023/11/13 00:51:13;;;;;;;8.65;5.18;;;;;;;;;;697150;28;4325;-64
2023/11/13 00:51:34;;;;;;;9.20;5.53;;;;;;;;;;697037;28;1388;-65
2023/11/13 00:51:54;;;;;;;9.37;5.80;;;;;;;;;;694821;28;829;-66
2023/11/13 00:52:14;;;;;;;8.83;5.40;;;;;;;;;;697187;28;1758;-65
2023/11/13 00:52:34;;;;;;;8.50;5.40;;;;;;;;;;696887;28;1913;-65
2023/11/13 00:52:55;;;;;;;8.23;5.50;;;;;;;;;;697720;28;959;-65
2023/11/13 00:53:16;;;;;;;9.27;5.53;;;;;;;;;;698374;28;1401;-65
2023/11/13 00:53:36;;;;;;;9.10;5.40;;;;;;;;;;703158;28;797;-64
2023/11/13 00:53:57;;;;;;;9.10;5.65;;;;;;;;;;702468;28;1490;-64
2023/11/13 00:54:17;;;;;;;9.20;5.57;;;;;;;;;;700223;28;4480;-65
2023/11/13 00:54:39;;;;;;;9.25;5.45;;;;;;;;;;700301;28;1481;-65
2023/11/13 00:54:59;;;;;;;8.98;5.28;;;;;;;;;;695132;28;923;-64
2023/11/13 00:55:20;;;;;;;9.18;5.30;;;;;;;;;;691960;28;1553;-64
2023/11/13 00:55:40;;;;;;;8.77;5.20;;;;;;;;;;692593;28;929;-66
2023/11/13 00:56:01;;;;;;;8.63;5.30;;;;;;;;;;692191;28;1313;-65
2023/11/13 00:56:21;;;;;;;9.48;5.53;;;;;;;;;;687996;28;1839;-66
2023/11/13 00:56:41;;;;;;;10.37;5.33;;;;;;;;;;692458;28;929;-65
2023/11/13 00:57:02;;;;;;;10.27;5.50;;;;;;;;;;692413;28;4271;-64
2023/11/13 00:57:22;;;;;;;10.50;5.85;;;;;;;;;;695681;28;1712;-65
2023/11/13 00:57:42;;;;;;;8.50;5.27;;;;;;;;;;699199;28;852;-64
2023/11/13 00:58:04;;;;;;;9.67;5.50;;;;;;;;;;701232;28;950;-64
2023/11/13 00:58:26;;;;;;;10.52;5.47;;;;;;;;;;699420;28;1334;-66
2023/11/13 00:58:46;;;;;;;8.63;5.07;;;;;;;;;;697250;28;853;-65
2023/11/13 00:59:07;;;;;;;8.55;5.13;;;;;;;;;;695718;28;1505;-65
2023/11/13 00:59:27;;;;;;;8.13;5.17;;;;;;;;;;696983;28;900;-64
2023/11/13 00:59:47;;;;;;;7.50;5.00;;;;;;;;;;695848;28;967;-64
2023/11/13 01:00:09;;;;;;;9.57;5.30;;;;;;;;;;693085;28;4404;-64
2023/11/13 01:00:29;;;;;;;9.60;5.20;;;;;;;;;;698104;28;856;-65
2023/11/13 01:00:49;;;;;;;9.32;5.03;;;;;;;;;;700971;28;1143;-65
2023/11/13 01:01:13;;;;;;;9.83;5.27;;;;;;;;;;697152;28;1523;-66
2023/11/13 01:01:33;;;;;;;9.02;5.20;;;;;;;;;;697921;28;2150;-65
2023/11/13 01:01:54;;;;;;;8.57;5.13;;;;;;;;;;697737;28;966;-65
2023/11/13 01:02:14;;;;;;;8.40;5.18;;;;;;;;;;693040;28;2169;-65
2023/11/13 01:02:34;;;;;;;10.37;5.40;;;;;;;;;;692939;28;1411;-65
2023/11/13 01:02:55;;;;;;;9.65;5.13;;;;;;;;;;692833;28;1634;-65
2023/11/13 01:03:15;;;;;;;7.63;4.80;;;;;;;;;;693254;28;4298;-64
2023/11/13 01:03:35;;;;;;;8.17;4.93;;;;;;;;;;698415;28;967;-64
2023/11/13 01:03:55;;;;;;;8.07;4.72;;;;;;;;;;698087;28;980;-64
2023/11/13 01:04:16;;;;;;;7.93;4.80;;;;;;;;;;696484;28;1457;-65
2023/11/13 01:04:36;;;;;;;8.70;5.03;;;;;;;;;;697257;28;798;-65
2023/11/13 01:04:56;;;;;;;8.15;4.97;;;;;;;;;;700571;28;990;-65
2023/11/13 01:05:17;;;;;;;7.43;5.00;;;;;;;;;;698897;28;1720;-65
2023/11/13 01:05:37;;;;;;;7.97;4.97;;;;;;;;;;700063;28;1531;-65
2023/11/13 01:05:57;;;;;;;9.43;4.80;;;;;;;;;;698043;28;797;-65
2023/11/13 01:06:18;;;;;;;8.63;4.80;;;;;;;;;;697594;28;4465;-65
2023/11/13 01:06:38;;;;;;;8.68;4.90;;;;;;;;;;699279;28;840;-64
2023/11/13 01:06:58;;;;;;;7.63;4.90;;;;;;;;;;700407;28;744;-65
2023/11/13 01:07:19;;;;;;;7.60;4.97;;;;;;;;;;697740;28;1430;-65
2023/11/13 01:07:39;;;;;;;8.13;4.80;;;;;;;;;;693032;28;1260;-63
2023/11/13 01:08:00;;;;;;;7.50;4.90;;;;;;;;;;694256;28;1228;-65
2023/11/13 01:08:21;;;;;;;7.65;4.57;;;;;;;;;;694018;28;1509;-66
2023/11/13 01:08:41;;;;;;;7.90;4.83;;;;;;;;;;695809;28;815;-65
2023/11/13 01:09:02;;;;;;;9.00;4.83;;;;;;;;;;699000;28;4347;-66
2023/11/13 01:09:22;;;;;;;8.15;4.90;;;;;;;;;;697261;28;2284;-65
2023/11/13 01:09:45;;;;;;;8.48;5.00;;;;;;;;;;697532;28;945;-65
2023/11/13 01:10:05;;;;;;;9.00;5.10;;;;;;;;;;699842;28;2846;-65
2023/11/13 01:10:26;;;;;;;8.00;4.82;;;;;;;;;;700509;28;1282;-65
2023/11/13 01:10:46;;;;;;;8.77;4.97;;;;;;;;;;697443;28;927;-66
2023/11/13 01:11:06;;;;;;;9.18;4.95;;;;;;;;;;697053;28;1747;-65
2023/11/13 01:11:27;;;;;;;8.13;4.90;;;;;;;;;;697714;28;898;-65
2023/11/13 01:11:49;;;;;;;7.50;4.70;;;;;;;;;;697781;28;1175;-65
2023/11/13 01:12:09;;;;;;;8.13;4.90;;;;;;;;;;692372;28;4318;-65
2023/11/13 01:12:29;;;;;;;8.82;4.70;;;;;;;;;;697439;28;1941;-64
2023/11/13 01:12:50;;;;;;;8.27;5.10;;;;;;;;;;699748;28;787;-65
2023/11/13 01:13:11;;;;;;;8.43;4.95;;;;;;;;;;697698;28;1423;-66
2023/11/13 01:13:32;;;;;;;9.07;4.93;;;;;;;;;;697932;28;1337;-65
2023/11/13 01:13:53;;;;;;;8.68;4.72;;;;;;;;;;699893;28;805;-65
2023/11/13 01:14:14;;;;;;;8.97;5.03;;;;;;;;;;696176;28;1933;-64
2023/11/13 01:14:34;;;;;;;8.90;5.10;;;;;;;;;;699757;28;824;-65
2023/11/13 01:14:55;;;;;;;9.80;5.28;;;;;;;;;;699701;28;914;-65
2023/11/13 01:15:15;;;;;;;8.27;4.70;;;;;;;;;;698003;28;4364;-64
2023/11/13 01:15:36;;;;;;;8.63;4.95;;;;;;;;;;702077;28;834;-66
2023/11/13 01:15:57;;;;;;;8.20;4.73;;;;;;;;;;699917;28;868;-65
2023/11/13 01:16:18;;;;;;;7.40;4.43;;;;;;;;;;702334;28;2648;-64
2023/11/13 01:16:39;;;;;;;7.30;4.65;;;;;;;;;;698412;28;883;-66
2023/11/13 01:16:59;;;;;;;8.60;4.93;;;;;;;;;;698331;28;892;-64
2023/11/13 01:17:19;;;;;;;8.88;4.68;;;;;;;;;;695998;28;1988;-65
2023/11/13 01:17:40;;;;;;;9.10;4.93;;;;;;;;;;697566;28;902;-65
2023/11/13 01:18:01;;;;;;;9.50;5.00;;;;;;;;;;699772;28;4299;-64
2023/11/13 01:18:23;;;;;;;8.43;4.93;;;;;;;;;;698083;28;1738;-65
2023/11/13 01:18:43;;;;;;;8.18;4.95;;;;;;;;;;700021;28;1183;-66
2023/11/13 01:19:03;;;;;;;9.30;5.07;;;;;;;;;;698386;28;951;-65
2023/11/13 01:19:24;;;;;;;9.23;5.00;;;;;;;;;;697609;28;1431;-65
2023/11/13 01:19:45;;;;;;;8.13;5.00;;;;;;;;;;698413;28;872;-64
2023/11/13 01:20:06;;;;;;;8.97;5.70;;;;;;;;;;695621;28;855;-64
2023/11/13 01:20:27;;;;;;;10.35;5.85;;;;;;;;;;696069;28;777;-65
2023/11/13 01:20:48;;;;;;;8.00;5.03;;;;;;;;;;698778;28;800;-64
2023/11/13 01:21:08;;;;;;;7.50;5.00;;;;;;;;;;698025;28;4490;-65
2023/11/13 01:21:29;;;;;;;7.80;4.80;;;;;;;;;;701244;28;3832;-64
2023/11/13 01:21:49;;;;;;;8.57;4.72;;;;;;;;;;704259;27;836;-65
2023/11/13 01:22:10;;;;;;;7.80;4.57;;;;;;;;;;703657;27;1017;-64
2023/11/13 01:22:30;;;;;;;9.30;4.60;;;;;;;;;;704789;27;1196;-64
2023/11/13 01:22:50;;;;;;;7.60;4.55;;;;;;;;;;703363;28;896;-66
2023/11/13 01:23:11;;;;;;;8.67;4.63;;;;;;;;;;699335;28;1453;-65
2023/11/13 01:23:31;;;;;;;8.98;4.70;;;;;;;;;;701443;28;879;-65
2023/11/13 01:23:52;;;;;;;8.77;4.80;;;;;;;;;;698123;28;940;-64
2023/11/13 01:24:12;;;;;;;8.23;4.75;;;;;;;;;;696451;28;4349;-64
2023/11/13 01:24:32;;;;;;;8.10;4.53;;;;;;;;;;698951;28;892;-65
2023/11/13 01:24:52;;;;;;;8.43;4.50;;;;;;;;;;701229;28;1198;-64
2023/11/13 01:25:13;;;;;;;7.40;4.55;;;;;;;;;;699339;28;2009;-65
2023/11/13 01:25:33;;;;;;;8.47;4.57;;;;;;;;;;700748;28;864;-65
2023/11/13 01:25:54;;;;;;;8.00;4.68;;;;;;;;;;702968;28;912;-64
2023/11/13 01:26:14;;;;;;;7.57;4.50;;;;;;;;;;702361;28;1854;-64
2023/11/13 01:26:34;;;;;;;7.87;5.00;;;;;;;;;;703569;28;882;-64
2023/11/13 01:26:55;;;;;;;8.13;5.00;;;;;;;;;;703560;28;722;-64
2023/11/13 01:27:15;;;;;;;9.07;5.10;;;;;;;;;;698925;28;4272;-64
2023/11/13 01:27:35;;;;;;;9.73;5.45;;;;;;;;;;701031;28;975;-65
2023/11/13 01:27:55;;;;;;;9.40;4.80;;;;;;;;;;698062;28;963;-65
2023/11/13 01:28:16;;;;;;;6.27;3.93;;;;;;;;;;696517;28;2479;-65
2023/11/13 01:28:36;;;;;;;7.82;4.50;;;;;;;;;;698191;28;1278;-65
2023/11/13 01:28:57;;;;;;;11.00;5.37;;;;;;;;;;698869;28;1297;-64
2023/11/13 01:29:17;;;;;;;8.40;5.10;;;;;;;;;;699673;28;1126;-65
2023/11/13 01:29:37;;;;;;;7.03;4.43;;;;;;;;;;699823;28;1297;-64
2023/11/13 01:29:57;;;;;;;6.87;4.40;;;;;;;;;;701262;28;1234;-65
2023/11/13 01:30:18;;;;;;;7.63;4.35;;;;;;;;;;699734;28;4352;-64
2023/11/13 01:30:38;;;;;;;7.60;4.50;;;;;;;;;;703896;28;1224;-65
2023/11/13 01:30:59;;;;;;;8.00;5.00;;;;;;;;;;703861;28;1281;-65
2023/11/13 01:31:19;;;;;;;8.33;4.53;;;;;;;;;;701887;28;1493;-64
2023/11/13 01:31:39;;;;;;;7.97;4.43;;;;;;;;;;704160;28;1265;-64
2023/11/13 01:32:00;;;;;;;7.50;4.65;;;;;;;;;;704091;28;1178;-65
2023/11/13 01:32:21;;;;;;;8.05;4.68;;;;;;;;;;698618;28;2328;-66
2023/11/13 01:32:41;;;;;;;7.80;4.50;;;;;;;;;;697251;28;1279;-65
2023/11/13 01:33:03;;;;;;;8.13;4.50;;;;;;;;;;695662;28;4503;-64
2023/11/13 01:33:24;;;;;;;7.88;4.47;;;;;;;;;;691317;28;2408;-65
2023/11/13 01:33:44;;;;;;;8.07;4.63;;;;;;;;;;691383;28;1279;-65
2023/11/13 01:34:05;;;;;;;7.43;4.60;;;;;;;;;;695859;28;1136;-66
2023/11/13 01:34:26;;;;;;;6.88;4.40;;;;;;;;;;697641;28;1719;-65
2023/11/13 01:34:46;;;;;;;9.98;4.35;;;;;;;;;;700841;28;1234;-64
2023/11/13 01:35:07;;;;;;;7.30;4.50;;;;;;;;;;703301;27;1456;-64
2023/11/13 01:35:27;;;;;;;6.72;4.22;;;;;;;;;;704757;27;1155;-64
2023/11/13 01:35:48;;;;;;;7.77;4.67;;;;;;;;;;705052;27;1297;-66
2023/11/13 01:36:10;;;;;;;8.60;5.30;;;;;;;;;;704189;27;4532;-64
2023/11/13 01:36:30;;;;;;;7.60;4.93;;;;;;;;;;701378;28;1329;-64
2023/11/13 01:36:51;;;;;;;10.85;4.50;;;;;;;;;;699189;28;1266;-64
2023/11/13 01:37:13;;;;;;;10.60;4.67;;;;;;;;;;697159;28;1572;-65
2023/11/13 01:37:33;;;;;;;7.88;4.63;;;;;;;;;;700358;28;1301;-64
2023/11/13 01:37:53;;;;;;;7.60;4.50;;;;;;;;;;698385;28;1403;-65
2023/11/13 01:38:14;;;;;;;7.40;4.50;;;;;;;;;;699240;28;2388;-65
2023/11/13 01:38:34;;;;;;;7.57;4.40;;;;;;;;;;700374;28;1440;-64
2023/11/13 01:38:54;;;;;;;7.55;4.45;;;;;;;;;;698096;28;1483;-64
2023/11/13 01:39:15;;;;;;;7.47;4.60;;;;;;;;;;694006;28;4353;-64
2023/11/13 01:39:35;;;;;;;7.00;4.50;;;;;;;;;;695916;28;1541;-64
2023/11/13 01:39:55;;;;;;;6.65;4.22;;;;;;;;;;691152;28;1333;-65
2023/11/13 01:40:16;;;;;;;7.30;4.30;;;;;;;;;;692733;28;1912;-65
2023/11/13 01:40:42;;;;;;;8.73;4.60;;;;;;;;;;695368;28;1270;-65
2023/11/13 01:41:03;;;;;;;8.65;4.80;;;;;;;;;;696794;28;1348;-65
2023/11/13 01:41:23;;;;;;;8.32;4.60;;;;;;;;;;700173;28;1617;-64
2023/11/13 01:41:43;;;;;;;8.10;4.40;;;;;;;;;;701743;28;1175;-65
2023/11/13 01:42:05;;;;;;;7.40;4.47;;;;;;;;;;702650;28;4348;-64
2023/11/13 01:42:25;;;;;;;8.13;5.03;;;;;;;;;;699724;28;1909;-65
2023/11/13 01:42:46;;;;;;;7.40;4.40;;;;;;;;;;701074;28;3134;-65
2023/11/13 01:43:19;;;;;;;8.95;4.68;;;;;;;;;;701083;28;1293;-64
2023/11/13 01:43:40;;;;;;;7.60;4.65;;;;;;;;;;702431;28;1225;-65
2023/11/13 01:44:00;;;;;;;7.27;4.80;;;;;;;;;;697950;28;6101;-65
2023/11/13 01:44:20;;;;;;;7.70;4.50;;;;;;;;;;699783;28;1189;-64
2023/11/13 01:44:40;;;;;;;8.40;4.63;;;;;;;;;;702289;28;1191;-65
2023/11/13 01:45:02;;;;;;;7.90;4.57;;;;;;;;;;700980;28;4386;-64
2023/11/13 01:45:22;;;;;;;7.35;4.85;;;;;;;;;;696784;28;2530;-65
2023/11/13 01:45:44;;;;;;;8.00;4.93;;;;;;;;;;700639;28;1488;-65
2023/11/13 01:46:06;;;;;;;7.13;4.63;;;;;;;;;;696828;28;1665;-65
2023/11/13 01:46:29;;;;;;;7.28;4.50;;;;;;;;;;694151;28;2168;-64
2023/11/13 01:46:50;;;;;;;7.38;4.55;;;;;;;;;;695454;28;1373;-65
2023/11/13 01:47:10;;;;;;;7.82;4.60;;;;;;;;;;695238;28;1730;-64
2023/11/13 01:47:30;;;;;;;6.97;4.50;;;;;;;;;;696236;28;1204;-65
2023/11/13 01:47:50;;;;;;;6.83;4.80;;;;;;;;;;696069;28;1480;-64
2023/11/13 01:48:13;;;;;;;7.63;4.50;;;;;;;;;;694107;28;4396;-64
2023/11/13 01:48:34;;;;;;;6.72;4.43;;;;;;;;;;695319;28;1306;-65
2023/11/13 01:48:54;;;;;;;7.80;4.50;;;;;;;;;;693736;28;1421;-65
2023/11/13 01:49:14;;;;;;;6.70;4.23;;;;;;;;;;692882;28;2889;-65
2023/11/13 01:49:34;;;;;;;7.10;4.50;;;;;;;;;;696022;28;1417;-65
2023/11/13 01:49:55;;;;;;;7.33;4.50;;;;;;;;;;698538;28;1377;-64
2023/11/13 01:50:16;;;;;;;6.47;4.22;;;;;;;;;;697377;28;2140;-65
2023/11/13 01:50:37;;;;;;;7.18;4.35;;;;;;;;;;700396;28;1234;-65
2023/11/13 01:50:57;;;;;;;7.30;4.27;;;;;;;;;;702262;28;1233;-64
2023/11/13 01:51:17;;;;;;;6.75;4.38;;;;;;;;;;702007;28;4502;-64
2023/11/13 01:51:38;;;;;;;7.40;4.53;;;;;;;;;;703112;28;1265;-66
2023/11/13 01:52:00;;;;;;;8.13;4.57;;;;;;;;;;702881;28;1206;-64
2023/11/13 01:52:20;;;;;;;8.48;4.70;;;;;;;;;;700702;27;1993;-65
2023/11/13 01:52:41;;;;;;;7.53;4.40;;;;;;;;;;699326;28;1321;-64
2023/11/13 01:53:02;;;;;;;7.78;4.40;;;;;;;;;;699126;28;1195;-65
2023/11/13 01:53:23;;;;;;;7.07;4.47;;;;;;;;;;698718;28;1543;-65
2023/11/13 01:53:44;;;;;;;7.32;4.22;;;;;;;;;;696626;28;1314;-65
2023/11/13 01:54:05;;;;;;;7.43;4.30;;;;;;;;;;697009;28;4593;-65
2023/11/13 01:54:25;;;;;;;9.35;4.60;;;;;;;;;;697385;28;1500;-64
2023/11/13 01:54:45;;;;;;;7.65;4.22;;;;;;;;;;699957;28;1241;-65
2023/11/13 01:55:06;;;;;;;8.13;4.50;;;;;;;;;;699837;28;1330;-64
2023/11/13 01:55:26;;;;;;;7.93;4.03;;;;;;;;;;694772;28;2212;-64
2023/11/13 01:55:47;;;;;;;7.00;4.00;;;;;;;;;;694584;28;1337;-65
2023/11/13 01:56:07;;;;;;;7.40;4.47;;;;;;;;;;694409;28;1450;-65
2023/11/13 01:56:29;;;;;;;8.02;4.70;;;;;;;;;;692211;28;2650;-65
2023/11/13 01:56:50;;;;;;;7.85;4.63;;;;;;;;;;694802;28;2031;-64
2023/11/13 01:57:10;;;;;;;8.43;4.75;;;;;;;;;;692772;28;4457;-65
2023/11/13 01:57:32;;;;;;;7.33;4.57;;;;;;;;;;694763;28;1338;-64
2023/11/13 01:57:52;;;;;;;7.13;4.35;;;;;;;;;;693979;28;1329;-64
2023/11/13 01:58:13;;;;;;;6.85;4.53;;;;;;;;;;694316;28;2354;-64
2023/11/13 01:58:34;;;;;;;7.17;4.40;;;;;;;;;;695751;28;1195;-65
2023/11/13 01:58:55;;;;;;;7.47;4.60;;;;;;;;;;696561;28;1408;-66
2023/11/13 01:59:16;;;;;;;8.52;4.80;;;;;;;;;;696667;28;1856;-65
2023/11/13 01:59:38;;;;;;;7.43;4.37;;;;;;;;;;699893;28;1238;-65
2023/11/13 01:59:59;;;;;;;7.40;4.20;;;;;;;;;;697122;28;1423;-65
2023/11/13 02:00:20;;;;;;;7.30;4.07;;;;;;;;;;697319;28;6371;-64
2023/11/13 02:00:40;;;;;;;7.72;4.18;;;;;;;;;;697859;28;1333;-65
2023/11/13 02:01:01;;;;;;;6.47;4.30;;;;;;;;;;698160;28;1399;-65
2023/11/13 02:01:22;;;;;;;8.57;4.07;;;;;;;;;;696585;28;2708;-65
2023/11/13 02:01:42;;;;;;;6.80;3.92;;;;;;;;;;698823;28;1246;-65
2023/11/13 02:02:04;;;;;;;6.97;4.32;;;;;;;;;;697793;28;1191;-64
2023/11/13 02:02:24;;;;;;;7.43;4.35;;;;;;;;;;695633;28;1796;-65
2023/11/13 02:02:46;;;;;;;8.50;4.60;;;;;;;;;;696399;28;1254;-64
2023/11/13 02:03:08;;;;;;;7.68;4.20;;;;;;;;;;700368;28;4348;-65
2023/11/13 02:03:29;;;;;;;8.13;4.30;;;;;;;;;;698845;28;2287;-65
2023/11/13 02:03:50;;;;;;;7.38;4.70;;;;;;;;;;698225;28;1799;-64
2023/11/13 02:04:10;;;;;;;6.60;4.55;;;;;;;;;;696863;28;1321;-66
2023/11/13 02:04:30;;;;;;;7.43;4.10;;;;;;;;;;695430;28;1294;-64
2023/11/13 02:04:51;;;;;;;7.63;4.10;;;;;;;;;;693684;28;1377;-65
2023/11/13 02:05:12;;;;;;;8.00;4.10;;;;;;;;;;693165;28;1932;-65
2023/11/13 02:05:33;;;;;;;7.65;3.97;;;;;;;;;;692396;28;1608;-64
2023/11/13 02:05:54;;;;;;;6.95;4.05;;;;;;;;;;691693;28;1483;-64
2023/11/13 02:06:15;;;;;;;6.50;3.90;;;;;;;;;;691274;28;4480;-65
2023/11/13 02:06:35;;;;;;;6.90;4.05;;;;;;;;;;694363;28;1533;-64
2023/11/13 02:06:56;;;;;;;6.40;3.93;;;;;;;;;;695300;28;1401;-65
2023/11/13 02:07:17;;;;;;;6.65;4.28;;;;;;;;;;696969;28;1692;-65
2023/11/13 02:07:39;;;;;;;6.93;4.07;;;;;;;;;;699493;28;1134;-65
2023/11/13 02:07:59;;;;;;;5.82;3.90;;;;;;;;;;698829;28;1258;-65
2023/11/13 02:08:20;;;;;;;6.50;3.97;;;;;;;;;;697846;28;1434;-65